首页
METAR-TAF:

METAR-TAF

机场 :

鹿特丹海牙机场

鹿特丹, 荷兰

纬度: 51-57N, 经度: 004-27E, 海拔: -5米

当前天气观测

该预报发布于16分钟前的19:25 UTC
风速20节,风向西南,在西转西南之间变化
温度 9°C
湿度 76%
气压 1021 hPa
能见度10公里或以上
散云层高于1900英尺
阴天层高于2200英尺

METAR: EHRD 211925Z AUTO 22020KT 190V250 9999 SCT019 OVC022 09/05 Q1021 NOSIG

时间: 20:41 (19:41 UTC)

预报

该预报发布于2小时和44分钟前的16:57 UTC
预报有效从21日的 18点(UTC)到 22日的 24点(UTC)
风速20节,风向西南,有时为30节阵风
能见度10公里或以上
少量云层高于2500英尺
成为
从 22日的 04点(UTC)到 22日的 06点(UTC)
风速25节,风向西南,有时为38节阵风
多云层高于1800英尺
短暂存在
从 22日的 06点(UTC)到 22日的 15点(UTC)
风速28节,风向西南,有时为43节阵风
能見度: 6000
散云层高于800英尺
多云层高于1200英尺
雨, 毛毛雨
几率 30% :
短暂存在
从 22日的 11点(UTC)到 22日的 15点(UTC)
能見度: 4000
散云层高于400英尺
多云层高于600英尺
毛毛雨
成为
从 22日的 15点(UTC)到 22日的 18点(UTC)
风速20节,风向西,有时为32节阵风
散云层高于2500英尺
短暂存在
从 22日的 15点(UTC)到 22日的 24点(UTC)
能見度: 5000
散云层高于600英尺
散云层高于1500英尺, 塔状积云.
多云层高于1800英尺
小阵雨, 雨

TAF: EHRD 211657Z 2118/2224 23020G30KT 9999 FEW025 BECMG 2204/2206 22025G38KT BKN018 TEMPO 2206/2215 23028G43KT 6000 RADZ SCT008 BKN012 PROB30 TEMPO 2211/2215 4000 DZ SCT004 BKN006 BECMG 2215/2218 26020G32KT SCT025 TEMPO 2215/2224 5000 -SHRA RA SCT006 SCT015TCU BKN018

超过4000个机场的气象观测和天气预报(METAR&TAF报告)。

可查询的气象台以黄色和红色小点在地图上表示。

将鼠标移到小点上方,可查看气象台名称。

然后点击查看天气观测和预报。

如需切换地图:点击带黑十字的绿色按钮放大地图;点击带横线的绿色按钮缩小地图;或者点击绿色箭头查看邻近地区的地图。


METAR-TAF: